createdAt,value
2022-10-19T00:01:05.270Z,12.50
2022-10-19T00:03:32.924Z,12.73
2022-10-19T00:06:00.006Z,13.32
2022-10-19T00:08:27.457Z,14.30
2022-10-19T00:10:54.232Z,14.32
2022-10-19T00:13:20.988Z,14.93
2022-10-19T00:15:47.813Z,12.82
2022-10-19T00:18:14.645Z,13.32
2022-10-19T00:20:42.043Z,13.07
2022-10-19T00:23:08.828Z,13.32
2022-10-19T00:25:37.084Z,13.23
2022-10-19T00:28:04.405Z,14.13
2022-10-19T00:30:31.512Z,12.93
2022-10-19T00:32:58.320Z,13.68
2022-10-19T00:35:25.103Z,14.27
2022-10-19T00:37:51.848Z,14.57
2022-10-19T00:40:18.729Z,14.95
2022-10-19T00:42:45.538Z,15.98
2022-10-19T00:45:17.355Z,16.35
2022-10-19T00:47:45.198Z,15.30
2022-10-19T00:50:15.131Z,15.80
2022-10-19T00:52:42.337Z,16.20
2022-10-19T00:55:09.681Z,18.58
2022-10-19T00:57:36.913Z,17.92
2022-10-19T01:00:07.005Z,17.40
2022-10-19T01:02:34.290Z,16.40
2022-10-19T01:05:02.053Z,18.00
2022-10-19T01:07:28.862Z,17.92
2022-10-19T01:09:56.408Z,17.95
2022-10-19T01:13:07.132Z,18.33
2022-10-19T01:15:58.720Z,19.73
2022-10-19T01:18:33.545Z,19.42
2022-10-19T01:21:32.405Z,18.00
2022-10-19T01:24:23.564Z,17.10
2022-10-19T01:26:53.178Z,18.52
2022-10-19T01:29:51.221Z,18.13
2022-10-19T01:32:57.567Z,18.38
2022-10-19T01:35:45.419Z,17.55
2022-10-19T01:38:36.397Z,18.80
2022-10-19T01:41:21.656Z,17.67
2022-10-19T01:44:15.509Z,16.77
2022-10-19T01:46:48.023Z,18.02
2022-10-19T01:49:24.889Z,16.83
2022-10-19T01:51:56.249Z,17.27
2022-10-19T01:54:26.688Z,17.92
2022-10-19T01:56:55.052Z,17.52
2022-10-19T01:59:22.471Z,16.98
2022-10-19T02:01:51.204Z,17.45
2022-10-19T02:04:21.224Z,17.73
2022-10-19T02:06:48.348Z,18.38
2022-10-19T02:09:17.978Z,19.10
2022-10-19T02:11:57.323Z,18.60
2022-10-19T02:14:29.235Z,17.27
2022-10-19T02:17:05.238Z,16.05
2022-10-19T02:23:22.098Z,17.20
2022-10-19T02:25:48.908Z,17.35
2022-10-19T02:28:15.721Z,16.85
2022-10-19T02:30:42.808Z,15.73
2022-10-19T02:33:09.626Z,15.07
2022-10-19T02:35:36.364Z,16.45
2022-10-19T02:38:05.160Z,16.00
2022-10-19T02:40:36.631Z,15.57
2022-10-19T02:43:09.928Z,15.93
2022-10-19T02:45:43.888Z,16.17
2022-10-19T02:48:22.804Z,16.52
2022-10-19T02:50:49.810Z,14.98
2022-10-19T02:53:16.799Z,16.45
2022-10-19T02:55:44.257Z,16.30
2022-10-19T02:58:10.875Z,16.58
2022-10-19T03:00:37.572Z,15.18
2022-10-19T03:03:04.300Z,15.50
2022-10-19T03:05:30.932Z,15.35
2022-10-19T03:07:57.747Z,14.98
2022-10-19T03:10:24.604Z,16.23
2022-10-19T03:12:51.237Z,14.75
2022-10-19T03:15:19.588Z,14.68
2022-10-19T03:17:46.328Z,14.35
2022-10-19T03:20:13.045Z,15.38
2022-10-19T03:22:39.726Z,16.08
2022-10-19T03:25:06.927Z,15.50
2022-10-19T03:27:33.922Z,15.75
2022-10-19T03:30:00.698Z,16.42
2022-10-19T03:32:27.489Z,15.65
2022-10-19T03:34:54.193Z,15.25
2022-10-19T03:37:20.801Z,15.10
2022-10-19T03:39:47.538Z,16.52
2022-10-19T03:42:14.239Z,15.05
2022-10-19T03:44:40.954Z,16.33
2022-10-19T03:47:07.764Z,15.57
2022-10-19T03:49:36.758Z,16.42
2022-10-19T03:52:06.306Z,16.40
2022-10-19T03:54:32.963Z,16.40
2022-10-19T03:56:59.714Z,16.10
2022-10-19T03:59:26.573Z,16.02
2022-10-19T04:01:53.286Z,16.30
2022-10-19T04:04:20.224Z,16.70
2022-10-19T04:06:49.012Z,16.15
2022-10-19T04:09:21.927Z,16.65
2022-10-19T04:11:49.104Z,16.92
2022-10-19T04:14:26.841Z,17.05
2022-10-19T04:17:03.918Z,15.85
2022-10-19T04:19:30.998Z,17.70
2022-10-19T04:21:58.033Z,16.05
2022-10-19T04:24:24.886Z,16.85
2022-10-19T04:26:54.350Z,15.77
2022-10-19T04:29:25.079Z,16.58
2022-10-19T04:31:54.725Z,15.63
2022-10-19T04:34:21.311Z,16.00
2022-10-19T04:36:47.979Z,16.05
2022-10-19T04:39:15.052Z,15.00
2022-10-19T04:41:41.757Z,16.73
2022-10-19T04:44:09.650Z,16.23
2022-10-19T04:46:37.341Z,15.05
2022-10-19T04:49:06.070Z,13.80
2022-10-19T04:51:32.792Z,13.82
2022-10-19T04:54:00.067Z,13.32
2022-10-19T04:56:27.728Z,14.82
2022-10-19T04:58:56.697Z,15.43
2022-10-19T05:01:25.275Z,15.60
2022-10-19T05:06:24.910Z,16.40
2022-10-19T05:08:51.610Z,16.73
2022-10-19T05:11:19.763Z,17.20
2022-10-19T05:13:47.186Z,15.80
2022-10-19T05:16:16.530Z,15.57
2022-10-19T05:18:46.520Z,17.80
2022-10-19T05:21:14.943Z,17.33
2022-10-19T05:23:42.463Z,16.30
2022-10-19T05:26:18.658Z,17.15
2022-10-19T05:28:57.275Z,16.52
2022-10-19T05:31:27.147Z,15.90
2022-10-19T05:33:54.215Z,16.92
2022-10-19T05:36:26.450Z,16.25
2022-10-19T05:38:55.988Z,18.02
2022-10-19T05:41:23.726Z,16.60
2022-10-19T05:43:56.218Z,16.65
2022-10-19T05:46:23.964Z,17.88
2022-10-19T05:48:50.668Z,16.13
2022-10-19T05:51:19.746Z,15.95
2022-10-19T05:53:46.853Z,15.05
2022-10-19T05:56:18.994Z,15.65
2022-10-19T05:58:46.121Z,15.23
2022-10-19T06:01:14.156Z,14.32
2022-10-19T06:03:41.463Z,15.00
2022-10-19T06:06:09.153Z,14.80
2022-10-19T06:08:36.615Z,15.45
2022-10-19T06:11:12.692Z,14.90
2022-10-19T06:13:40.741Z,15.90
2022-10-19T06:16:09.302Z,15.77
2022-10-19T06:18:36.607Z,14.88
2022-10-19T06:21:06.411Z,14.60
2022-10-19T06:23:34.641Z,16.17
2022-10-19T06:26:06.640Z,14.95
2022-10-19T06:28:34.262Z,15.38
2022-10-19T06:31:01.244Z,14.68
2022-10-19T06:33:30.248Z,14.48
2022-10-19T06:36:04.528Z,14.68
2022-10-19T06:38:31.291Z,14.13
2022-10-19T06:41:01.182Z,13.50
2022-10-19T06:43:27.884Z,13.45
2022-10-19T06:45:54.874Z,13.27
2022-10-19T06:48:21.719Z,12.63
2022-10-19T06:50:59.565Z,12.38
2022-10-19T06:53:27.227Z,14.02
2022-10-19T06:55:54.043Z,13.52
2022-10-19T06:58:20.766Z,14.20
2022-10-19T07:00:55.154Z,12.98
2022-10-19T07:03:21.894Z,12.90
2022-10-19T07:05:56.481Z,12.98
2022-10-19T07:08:23.850Z,13.27
2022-10-19T07:10:52.251Z,13.25
2022-10-19T07:13:19.965Z,12.35
2022-10-19T07:15:49.787Z,13.18
2022-10-19T07:18:17.107Z,14.23
2022-10-19T07:20:53.400Z,12.38
2022-10-19T07:23:20.194Z,13.20
2022-10-19T07:25:47.116Z,12.45
2022-10-19T07:28:15.961Z,12.10
2022-10-19T07:30:42.828Z,12.57
2022-10-19T07:33:09.599Z,11.68
2022-10-19T07:35:37.054Z,13.25
2022-10-19T07:38:04.281Z,13.95
2022-10-19T07:40:31.194Z,15.00
2022-10-19T07:42:58.066Z,14.38
2022-10-19T07:45:25.007Z,16.13
2022-10-19T07:47:51.936Z,14.85
2022-10-19T07:50:19.021Z,13.57
2022-10-19T07:52:45.787Z,13.40
2022-10-19T07:55:12.469Z,13.55
2022-10-19T07:57:40.754Z,12.55
2022-10-19T08:00:10.317Z,12.70
2022-10-19T08:02:54.668Z,13.82
2022-10-19T08:05:24.333Z,14.68
2022-10-19T08:07:51.161Z,14.05
2022-10-19T08:10:18.025Z,13.45
2022-10-19T08:12:44.795Z,13.45
2022-10-19T08:15:11.719Z,13.80
2022-10-19T08:17:39.830Z,13.93
2022-10-19T08:20:07.569Z,15.38
2022-10-19T08:22:36.990Z,15.02
2022-10-19T08:25:04.118Z,15.75
2022-10-19T08:27:30.936Z,16.25
2022-10-19T08:29:57.826Z,17.60
2022-10-19T08:32:24.574Z,16.50
2022-10-19T08:34:51.299Z,17.40
2022-10-19T08:37:26.446Z,15.32
2022-10-19T08:40:05.450Z,16.02
2022-10-19T08:43:00.765Z,15.23
2022-10-19T08:45:38.044Z,15.02
2022-10-19T08:48:28.725Z,15.15
2022-10-19T08:50:57.201Z,16.48
2022-10-19T08:53:45.755Z,16.05
2022-10-19T08:56:22.202Z,16.35
2022-10-19T08:59:20.553Z,15.18
2022-10-19T09:02:03.628Z,14.50
2022-10-19T09:04:45.469Z,14.30
2022-10-19T09:07:15.117Z,13.85
2022-10-19T09:09:59.812Z,14.35
2022-10-19T09:12:37.962Z,13.30
2022-10-19T09:15:10.327Z,13.88
2022-10-19T09:17:37.556Z,13.20
2022-10-19T09:20:41.805Z,13.23
2022-10-19T09:23:22.056Z,12.85
2022-10-19T09:25:51.598Z,12.38
2022-10-19T09:28:40.158Z,12.38
2022-10-19T09:31:13.595Z,11.77
2022-10-19T09:33:41.936Z,11.63
2022-10-19T09:36:18.192Z,12.40
2022-10-19T09:38:51.180Z,11.88
2022-10-19T09:41:23.691Z,11.82
2022-10-19T09:43:55.121Z,10.77
2022-10-19T09:49:10.657Z,11.75
2022-10-19T09:51:52.581Z,11.40
2022-10-19T09:54:36.447Z,11.18
2022-10-19T09:57:05.275Z,10.15
2022-10-19T09:59:36.936Z,10.40
2022-10-19T10:02:33.678Z,10.68
2022-10-19T10:05:07.204Z,10.75
2022-10-19T10:07:37.604Z,11.85
2022-10-19T10:10:20.320Z,11.98
2022-10-19T10:12:47.686Z,11.13
2022-10-19T10:15:22.099Z,10.63
2022-10-19T10:17:49.818Z,10.07
2022-10-19T10:20:27.764Z,9.60
2022-10-19T10:22:58.550Z,9.85
2022-10-19T10:25:32.296Z,9.57
2022-10-19T10:28:21.068Z,9.48
2022-10-19T10:30:53.445Z,10.95
2022-10-19T10:33:43.710Z,9.75
2022-10-19T10:36:12.540Z,10.20
2022-10-19T10:38:50.162Z,8.85
2022-10-19T10:41:23.124Z,10.57
2022-10-19T10:43:57.451Z,9.00
2022-10-19T10:46:32.574Z,8.60
2022-10-19T10:49:02.872Z,9.45
2022-10-19T10:51:56.128Z,9.40
2022-10-19T10:54:30.583Z,9.50
2022-10-19T10:57:15.756Z,9.23
2022-10-19T10:59:55.371Z,8.50
2022-10-19T11:02:31.685Z,7.90
2022-10-19T11:05:10.527Z,8.15
2022-10-19T11:07:42.999Z,9.25
2022-10-19T11:10:37.069Z,8.18
2022-10-19T11:13:13.311Z,8.43
2022-10-19T11:15:46.801Z,8.77
2022-10-19T11:18:20.657Z,9.23
2022-10-19T11:21:09.668Z,8.50
2022-10-19T11:23:40.393Z,10.23
2022-10-19T11:26:25.603Z,8.20
2022-10-19T11:29:13.625Z,8.38
2022-10-19T11:31:48.011Z,7.80
2022-10-19T11:34:42.889Z,7.85
2022-10-19T11:37:33.820Z,7.18
2022-10-19T11:40:28.772Z,7.30
2022-10-19T11:43:17.162Z,7.88
2022-10-19T11:46:01.716Z,6.50
2022-10-19T11:48:31.148Z,6.47
2022-10-19T11:51:16.798Z,6.90
2022-10-19T11:54:25.740Z,7.35
2022-10-19T11:57:03.945Z,6.15
2022-10-19T11:59:45.889Z,6.35
2022-10-19T12:02:20.221Z,7.15
2022-10-19T12:04:51.616Z,7.60
2022-10-19T12:07:39.583Z,7.03
2022-10-19T12:10:12.149Z,6.60
2022-10-19T12:12:47.657Z,6.53
2022-10-19T12:15:31.202Z,7.32
2022-10-19T12:18:06.858Z,6.80
2022-10-19T12:20:47.299Z,7.63
2022-10-19T12:23:35.880Z,6.65
2022-10-19T12:26:06.437Z,6.80
2022-10-19T12:28:40.532Z,6.18
2022-10-19T12:31:11.243Z,6.05
2022-10-19T12:33:56.952Z,6.68
2022-10-19T12:36:48.077Z,7.18
2022-10-19T12:39:33.476Z,7.07
2022-10-19T12:42:11.913Z,7.38
2022-10-19T12:44:44.482Z,6.57
2022-10-19T12:47:22.622Z,6.55
2022-10-19T12:49:56.403Z,7.03
2022-10-19T12:52:48.226Z,6.82
2022-10-19T12:55:17.910Z,6.18
2022-10-19T12:57:48.716Z,6.28
2022-10-19T13:00:22.315Z,6.80
2022-10-19T13:03:00.327Z,6.60
2022-10-19T13:05:30.660Z,6.70
2022-10-19T13:07:58.785Z,6.60
2022-10-19T13:10:28.135Z,6.93
2022-10-19T13:12:55.723Z,5.90
2022-10-19T13:15:34.696Z,6.65
2022-10-19T13:18:06.053Z,5.90
2022-10-19T13:20:33.862Z,6.25
2022-10-19T13:23:06.638Z,6.10
2022-10-19T13:25:35.230Z,5.88
2022-10-19T13:28:27.695Z,6.22
2022-10-19T13:31:04.853Z,5.63
2022-10-19T13:33:44.919Z,6.05
2022-10-19T13:36:12.702Z,5.05
2022-10-19T13:38:50.538Z,4.93
2022-10-19T13:41:28.561Z,5.40
2022-10-19T13:44:03.217Z,5.43
2022-10-19T13:46:29.866Z,4.75
2022-10-19T13:49:05.359Z,5.10
2022-10-19T13:51:32.176Z,4.65
2022-10-19T13:54:43.509Z,4.88
2022-10-19T13:57:50.143Z,4.32
2022-10-19T14:00:20.184Z,4.30
2022-10-19T14:03:20.547Z,4.38
2022-10-19T14:05:52.995Z,4.65
2022-10-19T14:08:41.678Z,4.45
2022-10-19T14:11:28.729Z,4.03
2022-10-19T14:14:15.523Z,3.95
2022-10-19T14:16:59.889Z,3.97
2022-10-19T14:19:32.300Z,3.72
2022-10-19T14:22:01.244Z,3.85
2022-10-19T14:24:34.308Z,3.60
2022-10-19T14:27:04.464Z,3.80
2022-10-19T14:29:37.085Z,3.72
2022-10-19T14:32:04.582Z,3.75
2022-10-19T14:34:31.578Z,3.30
2022-10-19T14:37:01.883Z,3.58
2022-10-19T14:39:34.471Z,3.13
2022-10-19T14:42:07.186Z,3.65
2022-10-19T14:44:46.301Z,3.13
2022-10-19T14:47:21.189Z,3.35
2022-10-19T14:49:48.987Z,3.22
2022-10-19T14:52:31.999Z,3.33
2022-10-19T14:55:00.909Z,3.45
2022-10-19T14:57:33.299Z,3.00
2022-10-19T15:00:04.192Z,3.42
2022-10-19T15:02:44.362Z,3.40
2022-10-19T15:05:22.201Z,3.47
2022-10-19T15:07:49.792Z,3.58
2022-10-19T15:10:47.572Z,3.45
2022-10-19T15:13:31.495Z,3.55
2022-10-19T15:16:02.188Z,3.50
2022-10-19T15:18:48.761Z,3.38
2022-10-19T15:21:20.323Z,3.40
2022-10-19T15:23:50.391Z,3.33
2022-10-19T15:26:19.406Z,3.50
2022-10-19T15:28:47.464Z,3.50
2022-10-19T15:31:26.817Z,3.58
2022-10-19T15:34:00.086Z,3.40
2022-10-19T15:36:29.496Z,3.78
2022-10-19T15:39:18.446Z,3.95
2022-10-19T15:41:53.425Z,3.60
2022-10-19T15:44:40.851Z,3.90
2022-10-19T15:47:18.015Z,3.63
2022-10-19T15:49:44.816Z,4.10
2022-10-19T15:52:15.603Z,3.75
2022-10-19T15:54:43.176Z,3.85
2022-10-19T15:57:29.513Z,3.75
2022-10-19T15:59:58.847Z,5.35
2022-10-19T16:02:25.971Z,5.82
2022-10-19T16:04:53.676Z,4.95
2022-10-19T16:07:26.963Z,5.25
2022-10-19T16:09:54.707Z,5.82
2022-10-19T16:12:22.533Z,4.53
2022-10-19T16:14:49.582Z,4.75
2022-10-19T16:17:16.911Z,5.28
2022-10-19T16:19:44.746Z,3.92
2022-10-19T16:22:12.649Z,7.22
2022-10-19T16:24:40.116Z,7.40
2022-10-19T16:27:07.832Z,13.43
2022-10-19T16:29:34.909Z,9.95
2022-10-19T16:32:01.687Z,9.30
2022-10-19T16:34:28.700Z,8.70
2022-10-19T16:36:55.562Z,6.07
2022-10-19T16:39:25.463Z,5.97
2022-10-19T16:41:52.269Z,5.40
2022-10-19T16:44:19.115Z,5.03
2022-10-19T16:46:46.063Z,4.53
2022-10-19T16:49:12.853Z,4.03
2022-10-19T16:51:40.902Z,4.00
2022-10-19T16:54:10.357Z,4.10
2022-10-19T16:56:42.200Z,3.90
2022-10-19T16:59:13.577Z,4.28
2022-10-19T17:01:41.648Z,3.58
2022-10-19T17:04:08.434Z,4.15
2022-10-19T17:06:35.442Z,4.10
2022-10-19T17:09:36.648Z,3.63
2022-10-19T17:11:49.514Z,4.32
2022-10-19T17:14:16.247Z,4.35
2022-10-19T17:16:42.986Z,3.92
2022-10-19T17:19:11.565Z,4.68
2022-10-19T17:21:38.831Z,4.80
2022-10-19T17:24:08.399Z,5.20
2022-10-19T17:26:38.535Z,4.75
2022-10-19T17:29:06.579Z,4.13
2022-10-19T17:31:34.268Z,4.20
2022-10-19T17:34:01.861Z,4.07
2022-10-19T17:36:31.408Z,4.30
2022-10-19T17:39:01.297Z,4.32
2022-10-19T17:41:28.872Z,3.42
2022-10-19T17:43:56.434Z,4.82
2022-10-19T17:46:30.188Z,4.95
2022-10-19T17:48:58.039Z,3.40
2022-10-19T17:51:28.820Z,3.80
2022-10-19T17:53:57.950Z,5.05
2022-10-19T17:56:25.299Z,3.78
2022-10-19T17:58:52.305Z,3.08
2022-10-19T18:01:21.479Z,2.92
2022-10-19T18:03:48.895Z,3.70
2022-10-19T18:06:24.593Z,3.25
2022-10-19T18:08:53.120Z,3.88
2022-10-19T18:11:28.681Z,3.70
2022-10-19T18:13:57.722Z,3.97
2022-10-19T18:16:27.654Z,4.50
2022-10-19T18:18:56.723Z,3.83
2022-10-19T18:21:26.328Z,5.03
2022-10-19T18:23:55.640Z,4.97
2022-10-19T18:26:24.768Z,4.35
2022-10-19T18:28:52.588Z,4.50
2022-10-19T18:31:22.517Z,4.07
2022-10-19T18:33:55.374Z,3.75
2022-10-19T18:36:22.526Z,4.57
2022-10-19T18:38:53.622Z,4.32
2022-10-19T18:41:20.873Z,3.85
2022-10-19T18:43:59.298Z,5.07
2022-10-19T18:46:26.261Z,4.82
2022-10-19T18:48:53.619Z,4.63
2022-10-19T18:51:22.456Z,4.57
2022-10-19T18:53:49.760Z,4.60
2022-10-19T18:56:19.541Z,5.10
2022-10-19T18:58:46.877Z,4.40
2022-10-19T19:01:16.621Z,4.90
2022-10-19T19:03:46.542Z,4.53
2022-10-19T19:06:25.545Z,4.65
2022-10-19T19:08:56.604Z,4.30
2022-10-19T19:11:25.883Z,4.00
2022-10-19T19:13:55.505Z,4.30
2022-10-19T19:16:22.750Z,5.55
2022-10-19T19:18:50.146Z,7.65
2022-10-19T19:21:21.906Z,7.05
2022-10-19T19:23:49.061Z,5.85
2022-10-19T19:26:17.320Z,8.82
2022-10-19T19:28:47.620Z,5.38
2022-10-19T19:31:18.698Z,4.43
2022-10-19T19:33:47.190Z,4.15
2022-10-19T19:36:16.043Z,4.57
2022-10-19T19:38:43.278Z,4.20
2022-10-19T19:41:13.880Z,3.47
2022-10-19T19:43:42.472Z,3.85
2022-10-19T19:46:16.688Z,3.95
2022-10-19T19:48:45.958Z,12.55
2022-10-19T19:51:16.061Z,8.05
2022-10-19T19:53:43.260Z,11.68
2022-10-19T19:56:11.676Z,6.15
2022-10-19T19:58:39.739Z,6.22
2022-10-19T20:01:18.248Z,5.20
2022-10-19T20:03:46.382Z,6.57
2022-10-19T20:06:15.129Z,5.78
2022-10-19T20:08:42.306Z,7.40
2022-10-19T20:11:11.781Z,5.95
2022-10-19T20:13:39.921Z,5.07
2022-10-19T20:16:12.645Z,5.40
2022-10-19T20:18:45.188Z,5.35
2022-10-19T20:21:12.677Z,5.22
2022-10-19T20:23:39.434Z,5.28
2022-10-19T20:26:06.508Z,5.05
2022-10-19T20:28:33.816Z,5.13
2022-10-19T20:31:06.937Z,5.20
2022-10-19T20:33:36.586Z,5.57
2022-10-19T20:36:16.530Z,4.88
2022-10-19T20:38:51.866Z,4.10
2022-10-19T20:41:20.575Z,5.28
2022-10-19T20:43:47.363Z,5.30
2022-10-19T20:46:20.972Z,5.50
2022-10-19T20:48:48.120Z,5.40
2022-10-19T20:51:20.532Z,5.13
2022-10-19T20:53:49.917Z,5.38
2022-10-19T20:56:19.216Z,4.75
2022-10-19T20:58:47.066Z,5.22
2022-10-19T21:01:18.836Z,5.70
2022-10-19T21:03:48.359Z,5.22
2022-10-19T21:06:15.166Z,5.25
2022-10-19T21:08:42.230Z,5.50
2022-10-19T21:11:13.363Z,5.45
2022-10-19T21:13:40.448Z,6.15
2022-10-19T21:16:16.028Z,6.07
2022-10-19T21:18:43.999Z,5.85
2022-10-19T21:21:22.575Z,5.75
2022-10-19T21:23:55.769Z,5.90
2022-10-19T21:26:25.223Z,5.75
2022-10-19T21:28:54.807Z,5.43
2022-10-19T21:31:23.233Z,5.68
2022-10-19T21:33:50.843Z,5.90
2022-10-19T21:36:19.201Z,6.05
2022-10-19T21:38:45.963Z,6.03
2022-10-19T21:41:15.142Z,5.88
2022-10-19T21:43:42.549Z,6.30
2022-10-19T21:46:15.585Z,6.75
2022-10-19T21:48:42.814Z,6.30
2022-10-19T21:51:43.412Z,6.00
2022-10-19T21:54:13.379Z,7.00
2022-10-19T21:56:40.739Z,6.47
2022-10-19T21:59:07.735Z,7.05
2022-10-19T22:01:38.571Z,6.43
2022-10-19T22:04:11.942Z,6.70
2022-10-19T22:06:39.162Z,6.75
2022-10-19T22:09:07.626Z,6.80
2022-10-19T22:11:34.432Z,6.85
2022-10-19T22:14:02.945Z,7.03
2022-10-19T22:16:31.294Z,7.20
2022-10-19T22:18:58.504Z,7.43
2022-10-19T22:21:28.232Z,6.80
2022-10-19T22:24:00.617Z,6.50
2022-10-19T22:26:32.369Z,6.55
2022-10-19T22:29:00.606Z,7.03
2022-10-19T22:31:29.484Z,6.53
2022-10-19T22:33:56.211Z,6.50
2022-10-19T22:36:23.046Z,6.43
2022-10-19T22:38:49.726Z,6.35
2022-10-19T22:41:16.483Z,6.32
2022-10-19T22:43:43.204Z,5.78
2022-10-19T22:46:09.932Z,7.10
2022-10-19T22:48:36.860Z,6.95
2022-10-19T22:51:03.637Z,7.18
2022-10-19T22:53:30.354Z,6.80
2022-10-19T22:55:57.121Z,6.47
2022-10-19T22:58:23.898Z,6.22
2022-10-19T23:01:04.883Z,6.00
2022-10-19T23:03:31.881Z,5.95
2022-10-19T23:05:58.873Z,5.85
2022-10-19T23:08:25.964Z,6.88
2022-10-19T23:10:52.740Z,6.95
2022-10-19T23:13:19.480Z,8.07
2022-10-19T23:15:46.316Z,9.02
2022-10-19T23:18:13.527Z,8.75
2022-10-19T23:20:40.259Z,8.07
2022-10-19T23:23:07.791Z,8.82
2022-10-19T23:25:34.598Z,10.02
2022-10-19T23:28:01.639Z,9.77
2022-10-19T23:30:28.370Z,10.20
2022-10-19T23:32:55.104Z,10.88
2022-10-19T23:35:21.841Z,10.75
2022-10-19T23:37:48.629Z,10.93
2022-10-19T23:40:15.378Z,10.70
2022-10-19T23:42:43.052Z,10.65
2022-10-19T23:45:10.325Z,10.88
2022-10-19T23:47:37.376Z,10.80
2022-10-19T23:50:04.573Z,9.90
2022-10-19T23:52:31.298Z,8.68
2022-10-19T23:54:58.169Z,9.63
2022-10-19T23:57:24.991Z,9.88
2022-10-19T23:59:51.583Z,9.40
